Time;durP1;ratioP1;P1;durP2;ratioP2;P2;SDS_P1;SDS_P2;PMS_P1;PMS_P2;Temp;Humidity;BMP_temperature;BMP_pressure;BME280_temperature;BME280_humidity;BME280_pressure;Samples;Min_cycle;Max_cycle;Signal;HPM_P1;HPM_P2
2023/04/04 00:02:11;;;;;;;;;7.50;2.25;;;;;10.98;58.86;102272.16;5058136;28;61780;-72
2023/04/04 00:04:37;;;;;;;;;4.00;2.75;;;;;10.95;58.89;102272.06;5056891;28;68520;-72
2023/04/04 00:07:02;;;;;;;;;5.00;3.25;;;;;10.94;58.70;102270.25;5047001;28;67996;-72
2023/04/04 00:09:27;;;;;;;;;5.25;3.75;;;;;10.89;58.85;102263.03;5057403;28;63190;-72
2023/04/04 00:11:53;;;;;;;;;5.75;3.75;;;;;10.90;58.80;102278.03;5053707;28;64111;-72
2023/04/04 00:14:18;;;;;;;;;4.75;3.00;;;;;10.87;58.67;102273.56;5050252;28;62143;-72
2023/04/04 00:16:43;;;;;;;;;4.00;4.00;;;;;10.85;58.49;102269.97;5053352;27;66936;-71
2023/04/04 00:19:13;;;;;;;;;3.50;2.75;;;;;10.84;58.52;102278.75;5045788;28;45552;-72
2023/04/04 00:21:38;;;;;;;;;3.50;2.50;;;;;10.84;58.34;102273.44;5053512;28;45358;-72
2023/04/04 00:24:04;;;;;;;;;3.25;3.25;;;;;10.80;58.53;102276.84;5056456;28;45985;-72
2023/04/04 00:26:29;;;;;;;;;4.00;3.00;;;;;10.74;58.61;102260.78;5048261;28;45517;-73
2023/04/04 00:28:55;;;;;;;;;7.75;5.25;;;;;10.74;58.58;102277.53;5050862;28;45930;-73
2023/04/04 00:31:20;;;;;;;;;3.00;3.00;;;;;10.68;58.73;102271.16;5053516;28;45572;-72
2023/04/04 00:33:46;;;;;;;;;3.50;3.50;;;;;10.62;59.21;102271.84;5053131;28;60591;-72
2023/04/04 00:36:11;;;;;;;;;3.75;3.50;;;;;10.61;58.96;102282.38;5045379;28;45339;-72
2023/04/04 00:38:37;;;;;;;;;3.00;3.00;;;;;10.57;59.33;102268.16;5049815;28;45666;-72
2023/04/04 00:41:02;;;;;;;;;6.25;4.00;;;;;10.54;59.62;102275.06;5051278;28;45292;-72
2023/04/04 00:43:28;;;;;;;;;6.00;6.00;;;;;10.54;59.74;102275.94;5048819;28;64142;-72
2023/04/04 00:45:53;;;;;;;;;6.25;4.75;;;;;10.53;59.69;102274.16;5054928;28;64340;-72
2023/04/04 00:48:19;;;;;;;;;3.50;3.50;;;;;10.51;60.13;102285.53;5048317;28;63818;-72
2023/04/04 00:50:44;;;;;;;;;5.00;5.00;;;;;10.47;60.17;102277.50;5049538;28;45265;-72
2023/04/04 00:53:10;;;;;;;;;6.00;6.00;;;;;10.43;60.49;102280.88;5043603;28;67101;-72
2023/04/04 00:55:37;;;;;;;;;6.00;6.00;;;;;10.39;60.49;102272.81;5055026;28;45301;-72
2023/04/04 00:58:03;;;;;;;;;6.00;4.00;;;;;10.34;60.91;102277.94;5051369;28;45537;-72
2023/04/04 01:00:28;;;;;;;;;6.00;6.00;;;;;10.32;61.20;102269.03;5052606;28;51598;-72
2023/04/04 01:02:54;;;;;;;;;5.75;4.00;;;;;10.29;61.07;102271.59;5044711;28;50375;-72
2023/04/04 01:05:19;;;;;;;;;3.25;3.25;;;;;10.29;61.39;102274.22;5047630;28;68142;-72
2023/04/04 01:07:44;;;;;;;;;4.00;4.00;;;;;10.28;61.49;102264.50;5050009;28;64308;-72
2023/04/04 01:10:10;;;;;;;;;9.00;5.75;;;;;10.28;61.59;102263.59;5051509;28;45590;-72
2023/04/04 01:12:35;;;;;;;;;7.50;6.75;;;;;10.25;61.73;102263.50;5065296;27;45813;-72
2023/04/04 01:15:01;;;;;;;;;6.50;6.00;;;;;10.22;62.13;102258.97;5054364;27;69237;-72
2023/04/04 01:17:26;;;;;;;;;8.00;4.00;;;;;10.19;62.11;102257.13;5053746;28;62838;-72
2023/04/04 01:20:00;;;;;;;;;6.00;6.00;;;;;10.16;62.33;102258.75;5058929;28;45545;-72
2023/04/04 01:22:26;;;;;;;;;6.00;3.75;;;;;10.14;62.63;102271.00;5062908;28;46772;-72
2023/04/04 01:24:54;;;;;;;;;5.00;3.25;;;;;10.09;62.69;102262.91;5057426;28;45452;-72
2023/04/04 01:27:20;;;;;;;;;5.00;5.00;;;;;10.09;62.58;102269.94;5060717;28;47089;-71
2023/04/04 01:29:45;;;;;;;;;4.50;4.00;;;;;10.06;62.75;102275.97;5048780;27;45474;-72
2023/04/04 01:32:14;;;;;;;;;7.25;6.00;;;;;10.02;62.90;102274.09;5056917;28;71918;-72
2023/04/04 01:35:06;;;;;;;;;3.00;3.00;;;;;10.00;62.86;102275.75;5053730;28;46471;-72
2023/04/04 01:37:43;;;;;;;;;3.75;3.00;;;;;9.96;62.90;102272.13;5054901;28;45521;-72
2023/04/04 01:40:15;;;;;;;;;4.00;4.00;;;;;9.97;62.64;102291.50;5049333;28;45490;-72
2023/04/04 01:42:41;;;;;;;;;4.00;4.00;;;;;9.92;62.67;102275.50;5054607;28;45724;-72
2023/04/04 01:45:07;;;;;;;;;4.00;4.00;;;;;9.92;62.70;102285.16;5065446;28;45373;-73
2023/04/04 01:47:39;;;;;;;;;4.00;4.00;;;;;9.85;62.66;102283.13;5049715;28;45358;-72
2023/04/04 01:50:06;;;;;;;;;4.00;4.00;;;;;9.83;62.89;102283.06;5059025;28;45473;-72
2023/04/04 01:52:32;;;;;;;;;4.00;4.00;;;;;9.82;62.98;102283.03;5052523;28;46331;-72
2023/04/04 01:54:57;;;;;;;;;3.00;3.00;;;;;9.78;62.83;102276.72;5050767;28;69580;-72
2023/04/04 01:57:22;;;;;;;;;7.50;4.00;;;;;9.79;63.15;102283.78;5045710;28;64986;-72
2023/04/04 01:59:48;;;;;;;;;3.50;3.50;;;;;9.75;63.13;102279.25;5058120;28;45529;-71
2023/04/04 02:02:13;;;;;;;;;8.00;4.00;;;;;9.73;62.98;102280.91;5053638;28;69514;-72
2023/04/04 02:04:38;;;;;;;;;6.50;4.25;;;;;9.69;63.04;102281.63;5041373;28;70423;-72
2023/04/04 02:07:04;;;;;;;;;4.00;4.00;;;;;9.65;63.53;102269.19;5046787;28;45478;-72
2023/04/04 02:09:29;;;;;;;;;5.00;5.00;;;;;9.62;63.22;102266.44;5047498;28;45480;-72
2023/04/04 02:11:54;;;;;;;;;5.75;5.75;;;;;9.62;63.55;102267.34;5042634;28;46404;-72
2023/04/04 02:14:20;;;;;;;;;7.75;6.00;;;;;9.61;63.64;102276.09;5055400;28;45476;-72
2023/04/04 02:16:45;;;;;;;;;5.50;5.50;;;;;9.54;63.88;102267.91;5047771;28;45565;-72
2023/04/04 02:19:11;;;;;;;;;6.00;5.75;;;;;9.54;63.67;102274.06;5055754;28;45444;-72
2023/04/04 02:21:37;;;;;;;;;6.00;4.25;;;;;9.50;64.07;102265.97;5055307;28;47753;-72
2023/04/04 02:24:02;;;;;;;;;8.50;4.25;;;;;9.49;63.99;102269.47;5051902;28;48645;-73
2023/04/04 02:26:28;;;;;;;;;8.00;6.00;;;;;9.47;64.01;102263.22;5054709;28;45473;-72
2023/04/04 02:28:53;;;;;;;;;6.25;4.25;;;;;9.45;64.09;102265.81;5050932;28;64548;-72
2023/04/04 02:31:18;;;;;;;;;7.50;3.25;;;;;9.38;63.90;102256.75;5049438;28;71181;-73
2023/04/04 02:33:44;;;;;;;;;4.00;4.00;;;;;9.38;64.11;102263.78;5048799;28;45427;-72
2023/04/04 02:36:10;;;;;;;;;6.75;3.25;;;;;9.35;64.05;102264.53;5044093;28;45498;-71
2023/04/04 02:38:36;;;;;;;;;4.25;4.25;;;;;9.34;64.17;102269.75;5039734;28;46909;-72
2023/04/04 02:41:01;;;;;;;;;4.00;4.00;;;;;9.34;64.46;102261.84;5049087;28;55283;-72
2023/04/04 02:43:26;;;;;;;;;5.50;5.50;;;;;9.33;64.28;102260.97;5045414;28;45286;-72
2023/04/04 02:45:52;;;;;;;;;5.00;5.00;;;;;9.29;64.42;102255.50;5042642;28;45453;-72
2023/04/04 02:48:17;;;;;;;;;6.00;6.00;;;;;9.28;64.32;102256.34;5060074;28;45553;-72
2023/04/04 02:50:42;;;;;;;;;5.50;5.50;;;;;9.27;64.41;102250.19;5045246;28;72002;-72
2023/04/04 02:53:08;;;;;;;;;7.25;5.75;;;;;9.26;64.58;102258.91;5057338;28;45271;-72
2023/04/04 02:55:33;;;;;;;;;6.75;4.25;;;;;9.22;64.57;102251.75;5060527;27;58626;-72
2023/04/04 02:58:00;;;;;;;;;5.75;5.00;;;;;9.22;64.64;102253.47;5056625;28;51882;-72
2023/04/04 03:00:25;;;;;;;;;8.00;6.75;;;;;9.19;64.68;102249.84;5053235;28;46835;-72
2023/04/04 03:02:54;;;;;;;;;6.75;3.00;;;;;9.22;64.88;102257.00;5054926;28;45396;-72
2023/04/04 03:05:20;;;;;;;;;4.75;4.75;;;;;9.19;64.77;102252.50;5048472;28;45678;-72
2023/04/04 03:07:45;;;;;;;;;5.00;5.00;;;;;9.20;64.79;102256.03;5051821;28;45403;-72
2023/04/04 03:10:11;;;;;;;;;4.50;4.50;;;;;9.14;65.18;102243.50;5041688;28;47425;-71
2023/04/04 03:12:36;;;;;;;;;3.00;3.00;;;;;9.11;65.25;102242.50;5046813;28;45442;-72
2023/04/04 03:15:03;;;;;;;;;3.00;3.00;;;;;9.09;65.52;102239.78;5047117;28;61469;-72
2023/04/04 03:17:28;;;;;;;;;9.00;6.50;;;;;9.08;65.34;102242.38;5037967;28;45270;-72
2023/04/04 03:19:54;;;;;;;;;5.50;3.25;;;;;9.01;65.53;102241.25;5037425;28;47123;-72
2023/04/04 03:22:19;;;;;;;;;4.25;3.75;;;;;9.05;65.36;102247.50;5044737;28;68904;-72
2023/04/04 03:24:44;;;;;;;;;5.50;5.00;;;;;9.04;65.36;102246.63;5042775;28;45509;-72
2023/04/04 03:27:10;;;;;;;;;2.50;2.50;;;;;9.00;65.36;102247.34;5048495;28;45379;-72
2023/04/04 03:29:36;;;;;;;;;3.00;3.00;;;;;9.01;65.64;102251.78;5050654;28;46743;-72
2023/04/04 03:32:01;;;;;;;;;7.50;5.00;;;;;8.97;65.37;102254.22;5050856;28;45268;-72
2023/04/04 03:34:27;;;;;;;;;7.75;5.00;;;;;8.94;65.41;102254.97;5045192;28;45484;-72
2023/04/04 03:36:52;;;;;;;;;5.50;3.75;;;;;8.96;65.45;102258.59;5054568;28;45520;-72
2023/04/04 03:39:18;;;;;;;;;4.00;4.00;;;;;8.91;65.22;102250.50;5046157;28;46394;-72
2023/04/04 03:41:43;;;;;;;;;4.50;4.00;;;;;8.95;65.59;102256.81;5038526;28;45521;-72
2023/04/04 03:44:09;;;;;;;;;2.75;2.75;;;;;8.93;65.69;102247.94;5045762;28;62768;-72
2023/04/04 03:46:34;;;;;;;;;2.75;2.75;;;;;8.91;65.20;102249.63;5048224;28;64038;-71
2023/04/04 03:49:00;;;;;;;;;5.50;5.00;;;;;8.89;65.37;102246.94;5061638;28;45625;-72
2023/04/04 03:51:26;;;;;;;;;5.00;5.00;;;;;8.88;65.34;102244.19;5053171;28;45256;-72
2023/04/04 03:53:51;;;;;;;;;4.75;2.00;;;;;8.86;65.63;102251.16;5063379;28;45354;-72
2023/04/04 03:56:17;;;;;;;;;7.50;6.00;;;;;8.83;65.65;102257.19;5058122;28;45303;-72
2023/04/04 03:58:43;;;;;;;;;4.25;3.00;;;;;8.80;65.39;102257.06;5058558;28;46517;-72
2023/04/04 04:01:08;;;;;;;;;5.00;5.00;;;;;8.77;65.62;102267.47;5054938;27;66777;-72
2023/04/04 04:03:33;;;;;;;;;5.00;5.00;;;;;8.78;65.64;102273.63;5047726;28;61854;-72
2023/04/04 04:05:59;;;;;;;;;4.25;3.50;;;;;8.76;65.90;102276.22;5044772;28;45529;-72
2023/04/04 04:08:25;;;;;;;;;8.25;4.50;;;;;8.73;66.26;102278.72;5057046;28;46396;-72
2023/04/04 04:10:50;;;;;;;;;6.50;5.00;;;;;8.72;65.95;102279.53;5055518;28;45391;-72
2023/04/04 04:13:16;;;;;;;;;3.00;3.00;;;;;8.68;66.01;102272.34;5056794;28;45515;-72
2023/04/04 04:15:41;;;;;;;;;6.50;3.00;;;;;8.72;66.09;102276.00;5044517;28;62849;-72
2023/04/04 04:18:06;;;;;;;;;7.25;4.75;;;;;8.65;65.70;102275.75;5048548;28;66810;-72
2023/04/04 04:20:32;;;;;;;;;4.75;3.75;;;;;8.66;65.84;102281.94;5045336;28;45291;-72
2023/04/04 04:22:57;;;;;;;;;8.00;4.75;;;;;8.68;65.93;102292.50;5055117;28;62322;-72
2023/04/04 04:25:22;;;;;;;;;6.25;3.00;;;;;8.62;65.98;102285.25;5044918;28;59291;-72
2023/04/04 04:27:48;;;;;;;;;7.00;5.00;;;;;8.66;66.01;102305.63;5048602;28;70937;-72
2023/04/04 04:30:13;;;;;;;;;3.00;3.00;;;;;8.63;65.81;102297.63;5042522;28;67805;-72
2023/04/04 04:32:38;;;;;;;;;5.25;3.00;;;;;8.64;65.60;102296.78;5045292;28;45331;-72
2023/04/04 04:35:05;;;;;;;;;3.00;3.00;;;;;8.63;65.78;102306.41;5043904;28;56934;-72
2023/04/04 04:37:30;;;;;;;;;6.00;3.00;;;;;8.59;65.65;102301.84;5046692;28;46426;-72
2023/04/04 04:39:56;;;;;;;;;3.00;3.00;;;;;8.60;65.74;102297.47;5048214;28;45501;-72
2023/04/04 04:42:21;;;;;;;;;5.25;3.00;;;;;8.56;65.83;102301.69;5048972;28;45566;-72
2023/04/04 04:44:47;;;;;;;;;10.25;3.00;;;;;8.56;65.53;102306.97;5050712;28;58494;-72
2023/04/04 04:47:12;;;;;;;;;6.25;4.50;;;;;8.51;65.16;102305.88;5050392;27;47442;-71
2023/04/04 04:49:37;;;;;;;;;3.50;3.50;;;;;8.50;65.11;102316.34;5055480;28;64535;-72
2023/04/04 04:52:02;;;;;;;;;4.00;4.00;;;;;8.43;64.69;102317.81;5048196;27;47993;-72
2023/04/04 04:54:28;;;;;;;;;5.00;5.00;;;;;8.37;64.48;102322.81;5039686;28;58754;-71
2023/04/04 04:56:53;;;;;;;;;3.00;3.00;;;;;8.29;64.51;102314.53;5052767;28;67908;-71
2023/04/04 04:59:19;;;;;;;;;5.00;2.00;;;;;8.26;64.45;102310.88;5056020;28;45531;-69
2023/04/04 05:01:45;;;;;;;;;5.00;5.00;;;;;8.20;64.18;102314.13;5053094;28;45496;-70
2023/04/04 05:04:10;;;;;;;;;2.75;2.75;;;;;8.15;64.23;102307.78;5044349;28;45334;-71
2023/04/04 05:06:37;;;;;;;;;5.25;3.00;;;;;8.10;64.45;102307.56;5054037;28;48494;-71
2023/04/04 05:09:02;;;;;;;;;2.50;2.50;;;;;8.04;64.14;102304.66;5043654;28;45476;-73
2023/04/04 05:11:28;;;;;;;;;4.25;3.00;;;;;8.01;64.29;102307.16;5046533;28;45540;-72
2023/04/04 05:13:53;;;;;;;;;4.00;4.00;;;;;8.00;64.67;102310.63;5051008;28;45331;-71
2023/04/04 05:16:19;;;;;;;;;4.00;3.00;;;;;7.97;65.05;102307.84;5052062;28;45652;-70
2023/04/04 05:18:44;;;;;;;;;5.00;3.00;;;;;7.94;65.26;102312.06;5054148;28;45272;-70
2023/04/04 05:21:10;;;;;;;;;3.00;3.00;;;;;7.90;65.39;102304.88;5050015;28;45659;-70
2023/04/04 05:23:35;;;;;;;;;5.00;5.00;;;;;7.87;65.41;102293.38;5053570;22;45588;-70
2023/04/04 05:26:02;;;;;;;;;3.00;3.00;;;;;7.87;65.36;102293.38;5047150;28;46075;-70
2023/04/04 05:28:27;;;;;;;;;7.25;4.00;;;;;7.84;65.37;102301.13;5051658;28;45478;-69
2023/04/04 05:30:53;;;;;;;;;6.00;3.00;;;;;7.80;65.12;102279.88;5044134;28;63714;-69
2023/04/04 05:33:18;;;;;;;;;3.00;3.00;;;;;7.82;65.55;102289.63;5045650;28;45425;-69
2023/04/04 05:35:43;;;;;;;;;5.25;2.75;;;;;7.81;66.12;102289.56;5051309;28;46309;-69
2023/04/04 05:38:09;;;;;;;;;5.00;2.00;;;;;7.83;66.08;102295.81;5052315;28;60408;-70
2023/04/04 05:40:35;;;;;;;;;6.00;3.00;;;;;7.81;65.80;102286.94;5055824;28;45477;-70
2023/04/04 05:43:03;;;;;;;;;8.75;2.00;;;;;7.81;65.80;102293.09;5053675;28;45558;-71
2023/04/04 05:45:28;;;;;;;;;2.00;2.00;;;;;7.78;65.62;102300.84;5053976;28;45986;-71
2023/04/04 05:47:54;;;;;;;;;6.00;6.00;;;;;7.78;65.39;102308.75;5056788;28;45272;-70
2023/04/04 05:50:19;;;;;;;;;4.00;3.00;;;;;7.77;65.18;102306.03;5056330;28;45731;-71
2023/04/04 05:52:45;;;;;;;;;5.00;5.00;;;;;7.79;65.70;102312.28;5051199;28;45465;-71
2023/04/04 05:55:11;;;;;;;;;2.75;2.75;;;;;7.77;65.79;102317.44;5051727;28;45989;-70
2023/04/04 05:57:36;;;;;;;;;4.50;2.75;;;;;7.75;65.97;102319.09;5053564;28;67457;-70
2023/04/04 06:00:04;;;;;;;;;4.75;2.25;;;;;7.77;65.75;102316.53;5045622;28;45474;-70
2023/04/04 06:02:30;;;;;;;;;6.00;2.00;;;;;7.76;65.63;102318.28;5048780;28;45625;-71
2023/04/04 06:04:55;;;;;;;;;6.00;3.00;;;;;7.75;65.71;102324.38;5051114;28;46347;-71
2023/04/04 06:07:21;;;;;;;;;5.75;4.50;;;;;7.78;65.62;102329.78;5051772;28;64829;-71
2023/04/04 06:09:46;;;;;;;;;9.50;2.75;;;;;7.77;65.63;102327.94;5048730;28;46444;-71
2023/04/04 06:12:11;;;;;;;;;4.50;4.50;;;;;7.80;65.80;102340.34;5051164;28;60947;-70
2023/04/04 06:14:36;;;;;;;;;3.50;3.00;;;;;7.79;65.87;102342.09;5050551;28;65638;-71
2023/04/04 06:17:03;;;;;;;;;6.00;3.00;;;;;7.82;65.98;102342.22;5046937;28;45520;-71
2023/04/04 06:19:28;;;;;;;;;6.50;3.50;;;;;7.82;66.07;102344.84;5053685;28;45469;-71
2023/04/04 06:21:53;;;;;;;;;5.75;4.00;;;;;7.85;65.91;102352.00;5053344;28;55433;-71
2023/04/04 06:24:19;;;;;;;;;8.75;5.00;;;;;7.83;65.70;102357.19;5050940;28;69978;-71
2023/04/04 06:26:44;;;;;;;;;4.50;2.25;;;;;7.86;65.76;102359.03;5052261;28;45628;-71
2023/04/04 06:29:10;;;;;;;;;5.00;2.75;;;;;7.90;65.94;102368.00;5046947;28;45532;-70
2023/04/04 06:31:35;;;;;;;;;0.75;0.50;;;;;7.91;65.98;102359.25;5045237;28;47041;-70
2023/04/04 06:34:01;;;;;;;;;6.50;2.25;;;;;7.92;65.68;102361.94;5049706;28;46339;-70
2023/04/04 06:36:26;;;;;;;;;5.50;4.00;;;;;7.96;65.89;102363.00;5048341;28;45734;-70
2023/04/04 06:38:51;;;;;;;;;5.25;5.25;;;;;7.98;66.05;102372.75;5052174;28;54529;-70
2023/04/04 06:41:17;;;;;;;;;5.00;2.00;;;;;8.01;65.83;102372.00;5053890;28;60057;-71
2023/04/04 06:43:45;;;;;;;;;5.00;5.00;;;;;8.04;65.55;102383.59;5055634;28;46408;-70
2023/04/04 06:46:11;;;;;;;;;5.50;4.50;;;;;8.06;65.68;102386.28;5051626;28;45552;-71
2023/04/04 06:48:36;;;;;;;;;6.50;4.50;;;;;8.07;65.37;102383.72;5055210;28;45354;-71
2023/04/04 06:51:06;;;;;;;;;5.50;5.25;;;;;8.10;65.43;102377.69;5055148;28;60277;-71
2023/04/04 06:53:33;;;;;;;;;6.00;4.00;;;;;8.09;65.17;102378.50;5054740;28;46839;-70
2023/04/04 06:55:58;;;;;;;;;6.00;3.00;;;;;8.14;65.32;102385.78;5053159;28;45260;-71
2023/04/04 06:58:24;;;;;;;;;5.75;5.50;;;;;8.17;65.27;102377.13;5054843;28;45457;-70
2023/04/04 07:00:50;;;;;;;;;5.25;3.00;;;;;8.20;65.32;102389.53;5050440;28;45277;-70
2023/04/04 07:03:15;;;;;;;;;5.75;5.00;;;;;8.21;65.22;102384.34;5055260;28;46175;-70
2023/04/04 07:05:41;;;;;;;;;8.75;6.00;;;;;8.26;65.24;102382.84;5054785;28;45386;-70
2023/04/04 07:08:07;;;;;;;;;3.50;3.50;;;;;8.26;65.20;102397.72;5055804;28;45513;-71
2023/04/04 07:10:32;;;;;;;;;7.00;5.75;;;;;8.31;65.44;102394.47;5053373;28;45590;-70
2023/04/04 07:12:58;;;;;;;;;6.00;5.25;;;;;8.36;65.36;102394.69;5055320;28;45521;-70
2023/04/04 07:15:23;;;;;;;;;3.50;3.25;;;;;8.40;65.19;102397.53;5052826;28;45426;-70
2023/04/04 07:17:48;;;;;;;;;4.00;4.00;;;;;8.38;64.88;102382.50;5053572;28;64742;-70
2023/04/04 07:20:14;;;;;;;;;7.00;5.50;;;;;8.47;64.84;102393.47;5055557;28;45240;-71
2023/04/04 07:22:40;;;;;;;;;5.00;5.00;;;;;8.50;64.63;102392.69;5053785;28;46621;-70
2023/04/04 07:25:06;;;;;;;;;4.75;3.00;;;;;8.54;64.41;102392.00;5054983;28;45340;-71
2023/04/04 07:27:32;;;;;;;;;4.50;4.25;;;;;8.55;64.55;102385.88;5054544;28;45296;-70
2023/04/04 07:29:57;;;;;;;;;3.25;3.25;;;;;8.57;64.27;102381.56;5051893;28;62728;-70
2023/04/04 07:32:23;;;;;;;;;5.25;4.25;;;;;8.61;63.82;102392.31;5053810;28;69636;-71
2023/04/04 07:34:49;;;;;;;;;6.00;5.00;;;;;8.66;64.31;102390.78;5058110;28;45365;-71
2023/04/04 07:37:14;;;;;;;;;5.75;3.00;;;;;8.65;63.77;102391.63;5053869;28;45525;-71
2023/04/04 07:39:40;;;;;;;;;6.00;4.50;;;;;8.71;63.45;102388.34;5057131;28;45577;-70
2023/04/04 07:42:06;;;;;;;;;8.00;4.25;;;;;8.77;63.47;102392.97;5053951;28;46536;-71
2023/04/04 07:44:31;;;;;;;;;7.00;6.50;;;;;8.79;63.27;102392.22;5058198;28;45511;-70
2023/04/04 07:46:56;;;;;;;;;3.00;3.00;;;;;8.82;63.38;102391.44;5057560;28;63421;-71
2023/04/04 07:49:22;;;;;;;;;5.00;5.00;;;;;8.85;63.05;102387.22;5058687;28;59748;-71
2023/04/04 07:51:47;;;;;;;;;6.50;4.75;;;;;8.88;63.03;102387.34;5057738;28;46598;-71
2023/04/04 07:54:13;;;;;;;;;5.00;3.00;;;;;8.91;62.98;102389.22;5058068;28;45364;-71
2023/04/04 07:56:38;;;;;;;;;5.00;3.75;;;;;8.96;62.78;102385.06;5057349;28;45444;-71
2023/04/04 07:59:04;;;;;;;;;7.75;6.50;;;;;8.99;62.76;102382.53;5058215;28;49492;-71
2023/04/04 08:01:29;;;;;;;;;11.00;4.25;;;;;9.03;62.43;102388.84;5052467;28;68026;-71
2023/04/04 08:03:55;;;;;;;;;4.25;4.25;;;;;9.03;62.46;102375.66;5056196;28;45271;-71
2023/04/04 08:06:21;;;;;;;;;7.00;4.25;;;;;9.10;62.53;102375.06;5057523;28;45616;-71
2023/04/04 08:08:46;;;;;;;;;7.00;5.75;;;;;9.13;62.27;102372.56;5054147;28;45366;-70
2023/04/04 08:11:12;;;;;;;;;9.00;7.00;;;;;9.16;62.35;102372.69;5057821;28;46672;-71
2023/04/04 08:13:37;;;;;;;;;7.75;4.50;;;;;9.19;62.28;102371.09;5053482;28;45636;-71
2023/04/04 08:16:03;;;;;;;;;4.25;4.00;;;;;9.18;61.90;102353.47;5056646;28;45483;-71
2023/04/04 08:18:29;;;;;;;;;6.25;6.25;;;;;9.24;62.20;102362.47;5057729;28;47373;-71
2023/04/04 08:20:54;;;;;;;;;4.50;3.00;;;;;9.26;62.16;102368.69;5056653;28;47992;-70
2023/04/04 08:23:19;;;;;;;;;6.00;6.00;;;;;9.29;61.65;102363.56;5052376;28;45414;-71
2023/04/04 08:25:46;;;;;;;;;7.50;5.00;;;;;9.35;61.66;102367.34;5053766;28;63621;-71
2023/04/04 08:28:12;;;;;;;;;7.75;7.75;;;;;9.36;62.14;102360.34;5052802;28;45474;-71
2023/04/04 08:30:38;;;;;;;;;6.25;4.00;;;;;9.45;61.92;102365.97;5052137;28;46636;-71
2023/04/04 08:33:03;;;;;;;;;3.75;3.75;;;;;9.48;61.87;102365.19;5054499;28;45438;-71
2023/04/04 08:35:28;;;;;;;;;4.00;4.00;;;;;9.53;61.38;102363.63;5053215;28;61199;-71
2023/04/04 08:37:53;;;;;;;;;5.00;5.00;;;;;9.58;61.34;102367.34;5054773;28;61241;-70
2023/04/04 08:40:19;;;;;;;;;3.00;3.00;;;;;9.62;60.98;102377.19;5055607;28;68359;-71
2023/04/04 08:42:45;;;;;;;;;4.00;4.00;;;;;9.67;60.61;102367.72;5055347;28;62462;-69
2023/04/04 08:45:11;;;;;;;;;5.50;4.00;;;;;9.68;60.46;102365.16;5053165;28;45445;-69
2023/04/04 08:47:38;;;;;;;;;6.75;3.50;;;;;9.77;60.78;102375.16;5042081;28;45293;-70
2023/04/04 08:50:05;;;;;;;;;7.00;4.00;;;;;9.82;60.78;102368.34;5056135;28;46708;-69
2023/04/04 08:52:32;;;;;;;;;9.25;5.50;;;;;9.88;60.83;102381.75;5053224;28;45339;-69
2023/04/04 08:54:57;;;;;;;;;6.25;4.00;;;;;9.91;60.34;102375.72;5057060;28;45362;-69
2023/04/04 08:57:23;;;;;;;;;6.75;6.75;;;;;9.94;60.22;102376.72;5056296;28;48334;-69
2023/04/04 08:59:48;;;;;;;;;8.00;5.00;;;;;10.02;59.77;102386.69;5055120;28;45681;-69
2023/04/04 09:02:18;;;;;;;;;7.50;6.00;;;;;10.06;59.82;102388.56;5054757;28;66797;-69
2023/04/04 09:04:47;;;;;;;;;12.00;7.00;;;;;10.11;59.60;102392.28;5051485;28;45525;-69
2023/04/04 09:07:13;;;;;;;;;4.00;4.00;;;;;10.12;59.78;102376.53;5053504;28;45678;-69
2023/04/04 09:09:39;;;;;;;;;7.25;6.25;;;;;10.20;59.52;102377.69;5062134;28;46942;-69
2023/04/04 09:12:05;;;;;;;;;6.00;4.00;;;;;10.25;59.72;102379.66;5055096;28;47288;-70
2023/04/04 09:14:32;;;;;;;;;3.50;2.50;;;;;10.29;59.11;102374.53;5055294;28;45562;-69
2023/04/04 09:16:57;;;;;;;;;4.00;4.00;;;;;10.34;58.48;102383.53;5054272;28;45436;-70
2023/04/04 09:19:22;;;;;;;;;4.75;4.00;;;;;10.37;58.55;102381.00;5056824;28;46376;-69
2023/04/04 09:21:48;;;;;;;;;5.25;5.25;;;;;10.44;58.03;102377.75;5055862;28;59723;-69
2023/04/04 09:24:14;;;;;;;;;3.00;3.00;;;;;10.49;58.01;102386.75;5072246;28;45473;-69
2023/04/04 09:26:47;;;;;;;;;7.75;4.00;;;;;10.55;58.25;102371.97;5072673;28;45577;-69
2023/04/04 09:29:13;;;;;;;;;7.50;4.00;;;;;10.61;58.12;102377.44;5073259;28;47340;-69
2023/04/04 09:31:38;;;;;;;;;4.50;3.75;;;;;10.69;57.67;102383.88;5074145;27;45320;-69
2023/04/04 09:34:04;;;;;;;;;4.00;4.00;;;;;10.72;57.42;102363.78;5070710;27;63212;-69
2023/04/04 09:36:30;;;;;;;;;2.75;2.75;;;;;10.80;57.32;102369.31;5049490;28;45772;-69
2023/04/04 09:38:55;;;;;;;;;4.25;3.50;;;;;10.87;57.37;102371.34;5070333;27;45724;-69
2023/04/04 09:41:21;;;;;;;;;5.00;3.25;;;;;10.90;57.23;102358.22;5072792;28;45441;-69
2023/04/04 09:43:47;;;;;;;;;6.50;5.25;;;;;10.96;56.98;102369.00;5058760;28;61842;-70
2023/04/04 09:46:14;;;;;;;;;5.00;4.00;;;;;11.04;57.45;102365.72;5057923;28;45570;-69
2023/04/04 09:48:40;;;;;;;;;4.50;4.50;;;;;11.10;57.25;102365.94;5069432;28;47697;-70
2023/04/04 09:51:06;;;;;;;;;5.50;3.50;;;;;11.16;57.05;102360.84;5057013;28;45414;-69
2023/04/04 09:53:36;;;;;;;;;3.25;3.25;;;;;11.17;56.29;102362.63;5073779;28;45582;-70
2023/04/04 09:56:01;;;;;;;;;3.00;3.00;;;;;11.17;56.15;102363.53;5066234;28;45315;-70
2023/04/04 09:58:30;;;;;;;;;3.75;3.50;;;;;11.15;55.58;102364.34;5062098;28;45601;-68
2023/04/04 10:00:58;;;;;;;;;5.00;3.25;;;;;11.14;55.46;102357.25;5075887;28;45690;-69
2023/04/04 10:03:24;;;;;;;;;3.50;3.50;;;;;11.15;55.32;102357.31;5075639;28;45592;-70
2023/04/04 10:06:03;;;;;;;;;3.00;1.00;;;;;11.22;55.36;102363.69;5072074;28;45684;-70
2023/04/04 10:08:29;;;;;;;;;8.00;3.50;;;;;11.25;54.79;102353.22;5073757;28;46455;-70
2023/04/04 10:11:00;;;;;;;;;7.00;5.00;;;;;11.30;54.10;102361.31;5073494;27;45216;-71
2023/04/04 10:13:30;;;;;;;;;6.75;4.25;;;;;11.35;53.47;102357.97;5068973;28;45517;-71
2023/04/04 10:15:58;;;;;;;;;2.50;2.25;;;;;11.38;53.38;102350.09;5050052;28;45466;-71
2023/04/04 10:18:25;;;;;;;;;4.25;4.25;;;;;11.45;53.62;102356.47;5070038;28;45532;-70
2023/04/04 10:20:52;;;;;;;;;2.00;2.00;;;;;11.48;53.56;102348.66;5068031;27;45525;-70
2023/04/04 10:23:18;;;;;;;;;3.00;3.00;;;;;11.54;53.48;102349.72;5065697;28;45351;-70
2023/04/04 10:25:44;;;;;;;;;3.50;3.00;;;;;11.59;53.88;102347.25;5071983;28;45641;-71
2023/04/04 10:28:10;;;;;;;;;3.50;3.50;;;;;11.67;53.09;102363.38;5074459;28;46955;-71
2023/04/04 10:30:41;;;;;;;;;4.50;3.00;;;;;11.73;52.98;102350.31;5073614;28;45510;-70
2023/04/04 10:33:11;;;;;;;;;4.25;4.25;;;;;11.77;53.25;102362.78;5073556;28;45532;-69
2023/04/04 10:35:40;;;;;;;;;8.25;3.50;;;;;11.82;52.56;102355.91;5069155;28;45924;-71
2023/04/04 10:38:07;;;;;;;;;4.00;4.00;;;;;11.86;52.49;102356.91;5077255;27;46427;-70
2023/04/04 10:40:38;;;;;;;;;4.00;4.00;;;;;11.92;52.86;102359.72;5062975;28;45380;-70
2023/04/04 10:43:05;;;;;;;;;3.25;3.25;;;;;11.96;52.95;102359.88;5058067;28;45427;-70
2023/04/04 10:45:32;;;;;;;;;4.50;4.00;;;;;12.03;53.01;102351.25;5063534;27;45415;-71
2023/04/04 10:47:58;;;;;;;;;3.25;3.25;;;;;12.07;52.59;102352.25;5072126;28;47485;-70
2023/04/04 10:50:24;;;;;;;;;3.50;3.50;;;;;12.13;52.33;102346.22;5071347;28;45516;-70
2023/04/04 10:52:49;;;;;;;;;3.25;3.25;;;;;12.20;52.63;102330.59;5073308;28;45149;-71
2023/04/04 10:55:16;;;;;;;;;3.50;3.50;;;;;12.29;52.67;102343.16;5069881;28;45767;-71
2023/04/04 10:57:47;;;;;;;;;4.25;3.00;;;;;12.30;51.70;102339.66;5054261;28;46520;-71
2023/04/04 11:00:16;;;;;;;;;4.00;4.00;;;;;12.41;51.09;102347.91;5057561;28;45417;-71
2023/04/04 11:02:46;;;;;;;;;5.75;4.50;;;;;12.45;51.05;102341.84;5069446;27;46369;-71
2023/04/04 11:05:17;;;;;;;;;4.00;4.00;;;;;12.45;51.04;102323.28;5074628;27;45291;-70
2023/04/04 11:07:44;;;;;;;;;6.50;4.75;;;;;12.52;50.78;102328.81;5076129;28;46576;-70
2023/04/04 11:10:15;;;;;;;;;4.67;4.67;;;;;12.56;50.55;102313.88;5077879;28;45375;-70
2023/04/04 11:12:44;;;;;;;;;4.00;4.00;;;;;12.62;50.71;102324.63;5076534;28;45559;-71
2023/04/04 11:15:11;;;;;;;;;7.50;5.00;;;;;12.63;50.81;102318.50;5073070;27;45564;-71
2023/04/04 11:17:49;;;;;;;;;5.00;3.33;;;;;12.72;50.82;102317.84;5057702;28;46713;-70
2023/04/04 11:20:16;;;;;;;;;3.33;3.33;;;;;12.77;50.12;102301.19;5072612;28;45431;-72
2023/04/04 11:22:42;;;;;;;;;3.00;3.00;;;;;12.85;50.16;102307.59;5078123;27;45568;-71
2023/04/04 11:25:40;;;;;;;;;3.00;3.00;;;;;12.96;49.50;102299.91;5075011;27;45523;-71